sensor_id;sensor_type;location;lat;lon;timestamp;temperature;humidity
25046;DHT22;13044;49.304;12.840;2023-12-29T00:02:13;7.90;99.90
25046;DHT22;13044;49.304;12.840;2023-12-29T00:04:40;7.90;99.90
25046;DHT22;13044;49.304;12.840;2023-12-29T00:07:07;7.90;99.90
25046;DHT22;13044;49.304;12.840;2023-12-29T00:09:34;7.90;99.90
25046;DHT22;13044;49.304;12.840;2023-12-29T00:12:07;7.90;99.90
25046;DHT22;13044;49.304;12.840;2023-12-29T00:14:39;7.90;99.90
25046;DHT22;13044;49.304;12.840;2023-12-29T00:17:07;7.80;99.90
25046;DHT22;13044;49.304;12.840;2023-12-29T00:19:34;7.80;99.90
25046;DHT22;13044;49.304;12.840;2023-12-29T00:22:01;7.90;99.90
25046;DHT22;13044;49.304;12.840;2023-12-29T00:24:30;7.90;99.90
25046;DHT22;13044;49.304;12.840;2023-12-29T00:27:00;7.90;99.90
25046;DHT22;13044;49.304;12.840;2023-12-29T00:29:27;7.90;99.90
25046;DHT22;13044;49.304;12.840;2023-12-29T00:32:00;7.90;99.90
25046;DHT22;13044;49.304;12.840;2023-12-29T00:34:27;7.90;99.90
25046;DHT22;13044;49.304;12.840;2023-12-29T00:36:54;7.90;99.90
25046;DHT22;13044;49.304;12.840;2023-12-29T00:39:21;7.90;99.90
25046;DHT22;13044;49.304;12.840;2023-12-29T00:41:55;8.00;99.90
25046;DHT22;13044;49.304;12.840;2023-12-29T00:44:23;8.00;99.90
25046;DHT22;13044;49.304;12.840;2023-12-29T00:46:50;8.00;99.90
25046;DHT22;13044;49.304;12.840;2023-12-29T00:49:17;8.00;99.90
25046;DHT22;13044;49.304;12.840;2023-12-29T00:51:47;8.00;99.90
25046;DHT22;13044;49.304;12.840;2023-12-29T00:54:14;8.00;99.90
25046;DHT22;13044;49.304;12.840;2023-12-29T00:56:42;8.00;99.90
25046;DHT22;13044;49.304;12.840;2023-12-29T00:59:14;8.10;99.90
25046;DHT22;13044;49.304;12.840;2023-12-29T01:01:41;8.10;99.90
25046;DHT22;13044;49.304;12.840;2023-12-29T01:04:08;8.00;99.90
25046;DHT22;13044;49.304;12.840;2023-12-29T01:06:35;8.00;99.90
25046;DHT22;13044;49.304;12.840;2023-12-29T01:09:02;8.10;99.90
25046;DHT22;13044;49.304;12.840;2023-12-29T01:11:29;8.10;99.90
25046;DHT22;13044;49.304;12.840;2023-12-29T01:13:56;8.10;99.90
25046;DHT22;13044;49.304;12.840;2023-12-29T01:16:23;8.10;99.90
25046;DHT22;13044;49.304;12.840;2023-12-29T01:18:50;8.10;99.90
25046;DHT22;13044;49.304;12.840;2023-12-29T01:21:17;8.10;99.90
25046;DHT22;13044;49.304;12.840;2023-12-29T01:23:44;8.10;99.90
25046;DHT22;13044;49.304;12.840;2023-12-29T01:26:11;8.10;99.90
25046;DHT22;13044;49.304;12.840;2023-12-29T01:28:38;8.10;99.90
25046;DHT22;13044;49.304;12.840;2023-12-29T01:31:05;8.10;99.90
25046;DHT22;13044;49.304;12.840;2023-12-29T01:33:32;8.10;99.90
25046;DHT22;13044;49.304;12.840;2023-12-29T01:36:00;8.10;99.90
25046;DHT22;13044;49.304;12.840;2023-12-29T01:38:40;8.10;99.90
25046;DHT22;13044;49.304;12.840;2023-12-29T01:41:07;8.10;99.90
25046;DHT22;13044;49.304;12.840;2023-12-29T01:43:33;8.10;99.90
25046;DHT22;13044;49.304;12.840;2023-12-29T01:46:00;8.10;99.90
25046;DHT22;13044;49.304;12.840;2023-12-29T01:48:27;8.10;99.90
25046;DHT22;13044;49.304;12.840;2023-12-29T01:50:55;8.10;99.90
25046;DHT22;13044;49.304;12.840;2023-12-29T01:53:22;8.10;99.90
25046;DHT22;13044;49.304;12.840;2023-12-29T01:56:04;8.10;99.90
25046;DHT22;13044;49.304;12.840;2023-12-29T01:58:32;8.10;99.90
25046;DHT22;13044;49.304;12.840;2023-12-29T02:01:01;8.10;99.90
25046;DHT22;13044;49.304;12.840;2023-12-29T02:03:29;8.10;99.90
25046;DHT22;13044;49.304;12.840;2023-12-29T02:05:57;8.20;99.90
25046;DHT22;13044;49.304;12.840;2023-12-29T02:08:25;8.20;99.90
25046;DHT22;13044;49.304;12.840;2023-12-29T02:10:52;8.20;99.90
25046;DHT22;13044;49.304;12.840;2023-12-29T02:13:19;8.20;99.90
25046;DHT22;13044;49.304;12.840;2023-12-29T02:15:52;8.20;99.90
25046;DHT22;13044;49.304;12.840;2023-12-29T02:18:22;8.20;99.90
25046;DHT22;13044;49.304;12.840;2023-12-29T02:20:50;8.20;99.90
25046;DHT22;13044;49.304;12.840;2023-12-29T02:23:17;8.20;99.90
25046;DHT22;13044;49.304;12.840;2023-12-29T02:25:44;8.20;99.90
25046;DHT22;13044;49.304;12.840;2023-12-29T02:28:25;8.20;99.90
25046;DHT22;13044;49.304;12.840;2023-12-29T02:31:09;8.20;99.90
25046;DHT22;13044;49.304;12.840;2023-12-29T02:33:40;8.20;99.90
25046;DHT22;13044;49.304;12.840;2023-12-29T02:36:08;8.20;99.90
25046;DHT22;13044;49.304;12.840;2023-12-29T02:38:37;8.20;99.90
25046;DHT22;13044;49.304;12.840;2023-12-29T02:41:04;8.20;99.90
25046;DHT22;13044;49.304;12.840;2023-12-29T02:43:31;8.20;99.90
25046;DHT22;13044;49.304;12.840;2023-12-29T02:45:59;8.20;99.90
25046;DHT22;13044;49.304;12.840;2023-12-29T02:48:26;8.20;99.90
25046;DHT22;13044;49.304;12.840;2023-12-29T02:50:53;8.20;99.90
25046;DHT22;13044;49.304;12.840;2023-12-29T02:53:20;8.30;99.90
25046;DHT22;13044;49.304;12.840;2023-12-29T02:55:47;8.20;99.90
25046;DHT22;13044;49.304;12.840;2023-12-29T02:58:13;8.30;99.90
25046;DHT22;13044;49.304;12.840;2023-12-29T03:00:40;8.30;99.90
25046;DHT22;13044;49.304;12.840;2023-12-29T03:03:07;8.30;99.90
25046;DHT22;13044;49.304;12.840;2023-12-29T03:05:34;8.30;99.90
25046;DHT22;13044;49.304;12.840;2023-12-29T03:08:01;8.30;99.90
25046;DHT22;13044;49.304;12.840;2023-12-29T03:10:28;8.30;99.90
25046;DHT22;13044;49.304;12.840;2023-12-29T03:12:55;8.30;99.90
25046;DHT22;13044;49.304;12.840;2023-12-29T03:15:22;8.30;99.90
25046;DHT22;13044;49.304;12.840;2023-12-29T03:17:49;8.30;99.90
25046;DHT22;13044;49.304;12.840;2023-12-29T03:20:16;8.20;99.90
25046;DHT22;13044;49.304;12.840;2023-12-29T03:22:42;8.30;99.90
25046;DHT22;13044;49.304;12.840;2023-12-29T03:25:09;8.20;99.90
25046;DHT22;13044;49.304;12.840;2023-12-29T03:27:36;8.30;99.90
25046;DHT22;13044;49.304;12.840;2023-12-29T03:30:03;8.30;99.90
25046;DHT22;13044;49.304;12.840;2023-12-29T03:32:31;8.20;99.90
25046;DHT22;13044;49.304;12.840;2023-12-29T03:34:57;8.30;99.90
25046;DHT22;13044;49.304;12.840;2023-12-29T03:37:25;8.30;99.90
25046;DHT22;13044;49.304;12.840;2023-12-29T03:39:51;8.30;99.90
25046;DHT22;13044;49.304;12.840;2023-12-29T03:42:18;8.30;99.90
25046;DHT22;13044;49.304;12.840;2023-12-29T03:44:45;8.30;99.90
25046;DHT22;13044;49.304;12.840;2023-12-29T03:47:12;8.30;99.90
25046;DHT22;13044;49.304;12.840;2023-12-29T03:49:39;8.30;99.90
25046;DHT22;13044;49.304;12.840;2023-12-29T03:52:06;8.40;99.90
25046;DHT22;13044;49.304;12.840;2023-12-29T03:54:33;8.30;99.90
25046;DHT22;13044;49.304;12.840;2023-12-29T03:57:00;8.40;99.90
25046;DHT22;13044;49.304;12.840;2023-12-29T03:59:27;8.40;99.90
25046;DHT22;13044;49.304;12.840;2023-12-29T04:01:54;8.30;99.90
25046;DHT22;13044;49.304;12.840;2023-12-29T04:04:22;8.40;99.90
25046;DHT22;13044;49.304;12.840;2023-12-29T04:06:50;8.40;99.90
25046;DHT22;13044;49.304;12.840;2023-12-29T04:09:17;8.40;99.90
25046;DHT22;13044;49.304;12.840;2023-12-29T04:11:44;8.40;99.90
25046;DHT22;13044;49.304;12.840;2023-12-29T04:14:11;8.50;99.90
25046;DHT22;13044;49.304;12.840;2023-12-29T04:16:39;8.40;99.90
25046;DHT22;13044;49.304;12.840;2023-12-29T04:19:06;8.50;99.90
25046;DHT22;13044;49.304;12.840;2023-12-29T04:21:34;8.40;99.90
25046;DHT22;13044;49.304;12.840;2023-12-29T04:24:00;8.40;99.90
25046;DHT22;13044;49.304;12.840;2023-12-29T04:26:27;8.40;99.90
25046;DHT22;13044;49.304;12.840;2023-12-29T04:28:54;8.40;99.90
25046;DHT22;13044;49.304;12.840;2023-12-29T04:31:21;8.40;99.90
25046;DHT22;13044;49.304;12.840;2023-12-29T04:33:48;8.40;99.90
25046;DHT22;13044;49.304;12.840;2023-12-29T04:36:15;8.40;99.90
25046;DHT22;13044;49.304;12.840;2023-12-29T04:38:42;8.40;99.90
25046;DHT22;13044;49.304;12.840;2023-12-29T04:41:11;8.40;99.90
25046;DHT22;13044;49.304;12.840;2023-12-29T04:43:38;8.40;99.90
25046;DHT22;13044;49.304;12.840;2023-12-29T04:46:05;8.40;99.90
25046;DHT22;13044;49.304;12.840;2023-12-29T04:48:32;8.40;99.90
25046;DHT22;13044;49.304;12.840;2023-12-29T04:50:59;8.40;99.90
25046;DHT22;13044;49.304;12.840;2023-12-29T04:53:25;8.40;99.90
25046;DHT22;13044;49.304;12.840;2023-12-29T04:55:52;8.40;99.90
25046;DHT22;13044;49.304;12.840;2023-12-29T04:58:19;8.40;99.90
25046;DHT22;13044;49.304;12.840;2023-12-29T05:00:46;8.40;99.90
25046;DHT22;13044;49.304;12.840;2023-12-29T05:03:13;8.40;99.90
25046;DHT22;13044;49.304;12.840;2023-12-29T05:05:40;8.30;99.90
25046;DHT22;13044;49.304;12.840;2023-12-29T05:08:07;8.30;99.90
25046;DHT22;13044;49.304;12.840;2023-12-29T05:10:34;8.30;99.90
25046;DHT22;13044;49.304;12.840;2023-12-29T05:13:03;8.20;99.90
25046;DHT22;13044;49.304;12.840;2023-12-29T05:15:30;8.20;99.90
25046;DHT22;13044;49.304;12.840;2023-12-29T05:17:57;8.20;99.90
25046;DHT22;13044;49.304;12.840;2023-12-29T05:20:24;8.10;99.90
25046;DHT22;13044;49.304;12.840;2023-12-29T05:22:51;8.10;99.90
25046;DHT22;13044;49.304;12.840;2023-12-29T05:25:18;8.00;99.90
25046;DHT22;13044;49.304;12.840;2023-12-29T05:27:48;8.00;99.90
25046;DHT22;13044;49.304;12.840;2023-12-29T05:30:15;7.90;99.90
25046;DHT22;13044;49.304;12.840;2023-12-29T05:32:42;7.90;99.90
25046;DHT22;13044;49.304;12.840;2023-12-29T05:35:09;7.90;99.90
25046;DHT22;13044;49.304;12.840;2023-12-29T05:37:36;7.80;99.90
25046;DHT22;13044;49.304;12.840;2023-12-29T05:40:03;7.80;99.90
25046;DHT22;13044;49.304;12.840;2023-12-29T05:42:30;7.80;99.90
25046;DHT22;13044;49.304;12.840;2023-12-29T05:44:57;7.70;99.90
25046;DHT22;13044;49.304;12.840;2023-12-29T05:47:24;7.70;99.90
25046;DHT22;13044;49.304;12.840;2023-12-29T05:49:51;7.70;99.90
25046;DHT22;13044;49.304;12.840;2023-12-29T05:52:18;7.70;99.90
25046;DHT22;13044;49.304;12.840;2023-12-29T05:54:47;7.60;99.90
25046;DHT22;13044;49.304;12.840;2023-12-29T05:57:15;7.60;99.90
25046;DHT22;13044;49.304;12.840;2023-12-29T05:59:42;7.50;99.90
25046;DHT22;13044;49.304;12.840;2023-12-29T06:02:09;7.60;99.90
25046;DHT22;13044;49.304;12.840;2023-12-29T06:04:36;7.50;99.90
25046;DHT22;13044;49.304;12.840;2023-12-29T06:07:03;7.50;99.90
25046;DHT22;13044;49.304;12.840;2023-12-29T06:09:30;7.50;99.90
25046;DHT22;13044;49.304;12.840;2023-12-29T06:11:57;7.50;99.90
25046;DHT22;13044;49.304;12.840;2023-12-29T06:14:24;7.50;99.90
25046;DHT22;13044;49.304;12.840;2023-12-29T06:16:52;7.50;99.90
25046;DHT22;13044;49.304;12.840;2023-12-29T06:19:19;7.50;99.90
25046;DHT22;13044;49.304;12.840;2023-12-29T06:21:47;7.60;99.90
25046;DHT22;13044;49.304;12.840;2023-12-29T06:24:14;7.60;99.90
25046;DHT22;13044;49.304;12.840;2023-12-29T06:26:41;7.60;99.90
25046;DHT22;13044;49.304;12.840;2023-12-29T06:29:10;7.60;99.90
25046;DHT22;13044;49.304;12.840;2023-12-29T06:31:40;7.60;99.90
25046;DHT22;13044;49.304;12.840;2023-12-29T06:34:09;7.60;99.90
25046;DHT22;13044;49.304;12.840;2023-12-29T06:36:36;7.60;99.90
25046;DHT22;13044;49.304;12.840;2023-12-29T06:39:03;7.60;99.90
25046;DHT22;13044;49.304;12.840;2023-12-29T06:41:30;7.60;99.90
25046;DHT22;13044;49.304;12.840;2023-12-29T06:43:57;7.60;99.90
25046;DHT22;13044;49.304;12.840;2023-12-29T06:46:24;7.60;99.90
25046;DHT22;13044;49.304;12.840;2023-12-29T06:48:51;7.60;99.90
25046;DHT22;13044;49.304;12.840;2023-12-29T06:51:18;7.60;99.90
25046;DHT22;13044;49.304;12.840;2023-12-29T06:53:46;7.60;99.90
25046;DHT22;13044;49.304;12.840;2023-12-29T06:56:16;7.60;99.90
25046;DHT22;13044;49.304;12.840;2023-12-29T06:58:44;7.60;99.90
25046;DHT22;13044;49.304;12.840;2023-12-29T07:01:11;7.60;99.90
25046;DHT22;13044;49.304;12.840;2023-12-29T07:03:38;7.60;99.90
25046;DHT22;13044;49.304;12.840;2023-12-29T07:06:06;7.60;99.90
25046;DHT22;13044;49.304;12.840;2023-12-29T07:08:33;7.60;99.90
25046;DHT22;13044;49.304;12.840;2023-12-29T07:11:00;7.60;99.90
25046;DHT22;13044;49.304;12.840;2023-12-29T07:13:27;7.60;99.90
25046;DHT22;13044;49.304;12.840;2023-12-29T07:15:55;7.60;99.90
25046;DHT22;13044;49.304;12.840;2023-12-29T07:18:22;7.60;99.90
25046;DHT22;13044;49.304;12.840;2023-12-29T07:20:49;7.60;99.90
25046;DHT22;13044;49.304;12.840;2023-12-29T07:23:16;7.60;99.90
25046;DHT22;13044;49.304;12.840;2023-12-29T07:25:43;7.70;99.90
25046;DHT22;13044;49.304;12.840;2023-12-29T07:28:10;7.70;99.90
25046;DHT22;13044;49.304;12.840;2023-12-29T07:30:37;7.70;99.90
25046;DHT22;13044;49.304;12.840;2023-12-29T07:33:04;7.70;99.90
25046;DHT22;13044;49.304;12.840;2023-12-29T07:35:31;7.70;99.90
25046;DHT22;13044;49.304;12.840;2023-12-29T07:37:59;7.70;99.90
25046;DHT22;13044;49.304;12.840;2023-12-29T07:40:26;7.70;99.90
25046;DHT22;13044;49.304;12.840;2023-12-29T07:42:53;7.70;99.90
25046;DHT22;13044;49.304;12.840;2023-12-29T07:45:20;7.70;99.90
25046;DHT22;13044;49.304;12.840;2023-12-29T07:47:47;7.70;99.90
25046;DHT22;13044;49.304;12.840;2023-12-29T07:50:14;7.70;99.90
25046;DHT22;13044;49.304;12.840;2023-12-29T07:52:43;7.70;99.90
25046;DHT22;13044;49.304;12.840;2023-12-29T07:55:11;7.70;99.90
25046;DHT22;13044;49.304;12.840;2023-12-29T07:57:37;7.70;99.90
25046;DHT22;13044;49.304;12.840;2023-12-29T08:00:05;7.80;99.90
25046;DHT22;13044;49.304;12.840;2023-12-29T08:02:32;7.80;99.90
25046;DHT22;13044;49.304;12.840;2023-12-29T08:04:59;7.80;99.90
25046;DHT22;13044;49.304;12.840;2023-12-29T08:07:26;7.80;99.90
25046;DHT22;13044;49.304;12.840;2023-12-29T08:09:54;7.80;99.90
25046;DHT22;13044;49.304;12.840;2023-12-29T08:12:21;7.80;99.90
25046;DHT22;13044;49.304;12.840;2023-12-29T08:14:48;7.90;99.90
25046;DHT22;13044;49.304;12.840;2023-12-29T08:17:16;7.90;99.90
25046;DHT22;13044;49.304;12.840;2023-12-29T08:19:43;7.90;99.90
25046;DHT22;13044;49.304;12.840;2023-12-29T08:22:10;7.90;99.90
25046;DHT22;13044;49.304;12.840;2023-12-29T08:24:40;8.00;99.90
25046;DHT22;13044;49.304;12.840;2023-12-29T08:27:12;8.00;99.90
25046;DHT22;13044;49.304;12.840;2023-12-29T08:29:40;8.00;99.90
25046;DHT22;13044;49.304;12.840;2023-12-29T08:32:07;8.10;99.90
25046;DHT22;13044;49.304;12.840;2023-12-29T08:34:34;8.10;99.90
25046;DHT22;13044;49.304;12.840;2023-12-29T08:37:01;8.10;99.90
25046;DHT22;13044;49.304;12.840;2023-12-29T08:39:28;8.20;99.90
25046;DHT22;13044;49.304;12.840;2023-12-29T08:41:55;8.30;99.90
25046;DHT22;13044;49.304;12.840;2023-12-29T08:44:22;8.30;99.90
25046;DHT22;13044;49.304;12.840;2023-12-29T08:46:49;8.40;99.90
25046;DHT22;13044;49.304;12.840;2023-12-29T08:49:17;8.40;99.90
25046;DHT22;13044;49.304;12.840;2023-12-29T08:51:44;8.40;99.90
25046;DHT22;13044;49.304;12.840;2023-12-29T08:54:10;8.40;99.90
25046;DHT22;13044;49.304;12.840;2023-12-29T08:56:37;8.40;99.90
25046;DHT22;13044;49.304;12.840;2023-12-29T08:59:04;8.40;99.90
25046;DHT22;13044;49.304;12.840;2023-12-29T09:01:31;8.40;99.90
25046;DHT22;13044;49.304;12.840;2023-12-29T09:03:58;8.50;99.90
25046;DHT22;13044;49.304;12.840;2023-12-29T09:06:25;8.50;99.90
25046;DHT22;13044;49.304;12.840;2023-12-29T09:08:52;8.50;99.90
25046;DHT22;13044;49.304;12.840;2023-12-29T09:11:19;8.50;99.90
25046;DHT22;13044;49.304;12.840;2023-12-29T09:13:46;8.60;99.90
25046;DHT22;13044;49.304;12.840;2023-12-29T09:16:13;8.60;99.90
25046;DHT22;13044;49.304;12.840;2023-12-29T09:18:40;8.60;99.90
25046;DHT22;13044;49.304;12.840;2023-12-29T09:21:07;8.60;99.90
25046;DHT22;13044;49.304;12.840;2023-12-29T09:23:34;8.70;99.90
25046;DHT22;13044;49.304;12.840;2023-12-29T09:26:04;8.70;99.90
25046;DHT22;13044;49.304;12.840;2023-12-29T09:28:32;8.70;99.90
25046;DHT22;13044;49.304;12.840;2023-12-29T09:31:00;8.80;99.90
25046;DHT22;13044;49.304;12.840;2023-12-29T09:33:28;8.80;99.90
25046;DHT22;13044;49.304;12.840;2023-12-29T09:35:55;8.80;99.90
25046;DHT22;13044;49.304;12.840;2023-12-29T09:38:22;8.80;99.90
25046;DHT22;13044;49.304;12.840;2023-12-29T09:40:49;8.80;99.90
25046;DHT22;13044;49.304;12.840;2023-12-29T09:43:18;8.90;99.90
25046;DHT22;13044;49.304;12.840;2023-12-29T09:45:45;8.90;99.90
25046;DHT22;13044;49.304;12.840;2023-12-29T09:48:16;8.90;99.90
25046;DHT22;13044;49.304;12.840;2023-12-29T09:50:47;8.90;99.90
25046;DHT22;13044;49.304;12.840;2023-12-29T09:53:17;9.00;99.90
25046;DHT22;13044;49.304;12.840;2023-12-29T09:55:45;8.90;99.90
25046;DHT22;13044;49.304;12.840;2023-12-29T09:58:15;8.90;99.90
25046;DHT22;13044;49.304;12.840;2023-12-29T10:00:42;9.00;99.90
25046;DHT22;13044;49.304;12.840;2023-12-29T10:03:10;8.90;99.90
25046;DHT22;13044;49.304;12.840;2023-12-29T10:05:37;8.90;99.90
25046;DHT22;13044;49.304;12.840;2023-12-29T10:08:05;9.00;99.90
25046;DHT22;13044;49.304;12.840;2023-12-29T10:10:35;9.00;99.90
25046;DHT22;13044;49.304;12.840;2023-12-29T10:13:06;9.00;99.90
25046;DHT22;13044;49.304;12.840;2023-12-29T10:15:50;9.10;99.90
25046;DHT22;13044;49.304;12.840;2023-12-29T10:18:33;9.10;99.90
25046;DHT22;13044;49.304;12.840;2023-12-29T10:21:33;9.10;99.90
25046;DHT22;13044;49.304;12.840;2023-12-29T10:24:25;9.20;99.90
25046;DHT22;13044;49.304;12.840;2023-12-29T10:26:52;9.30;99.90
25046;DHT22;13044;49.304;12.840;2023-12-29T10:29:21;9.40;99.90
25046;DHT22;13044;49.304;12.840;2023-12-29T10:31:48;9.40;99.90
25046;DHT22;13044;49.304;12.840;2023-12-29T10:34:21;9.50;99.90
25046;DHT22;13044;49.304;12.840;2023-12-29T10:36:59;9.50;99.90
25046;DHT22;13044;49.304;12.840;2023-12-29T10:39:28;9.50;99.90
25046;DHT22;13044;49.304;12.840;2023-12-29T10:42:08;9.50;99.90
25046;DHT22;13044;49.304;12.840;2023-12-29T10:44:37;9.50;99.90
25046;DHT22;13044;49.304;12.840;2023-12-29T10:47:10;9.60;99.90
25046;DHT22;13044;49.304;12.840;2023-12-29T10:49:40;9.60;99.90
25046;DHT22;13044;49.304;12.840;2023-12-29T10:52:15;9.60;99.90
25046;DHT22;13044;49.304;12.840;2023-12-29T10:54:43;9.70;99.90
25046;DHT22;13044;49.304;12.840;2023-12-29T10:57:12;9.70;99.90
25046;DHT22;13044;49.304;12.840;2023-12-29T10:59:40;9.70;99.90
25046;DHT22;13044;49.304;12.840;2023-12-29T11:02:07;9.70;99.90
25046;DHT22;13044;49.304;12.840;2023-12-29T11:04:41;9.60;99.90
25046;DHT22;13044;49.304;12.840;2023-12-29T11:07:12;9.70;99.90
25046;DHT22;13044;49.304;12.840;2023-12-29T11:09:40;9.70;99.90
25046;DHT22;13044;49.304;12.840;2023-12-29T11:12:09;9.70;99.90
25046;DHT22;13044;49.304;12.840;2023-12-29T11:14:36;9.70;99.90
25046;DHT22;13044;49.304;12.840;2023-12-29T11:17:04;9.70;99.90
25046;DHT22;13044;49.304;12.840;2023-12-29T11:19:33;9.70;99.90
25046;DHT22;13044;49.304;12.840;2023-12-29T11:22:00;9.70;99.90
25046;DHT22;13044;49.304;12.840;2023-12-29T11:24:28;9.70;99.90
25046;DHT22;13044;49.304;12.840;2023-12-29T11:27:06;9.70;99.90
25046;DHT22;13044;49.304;12.840;2023-12-29T11:29:34;9.80;99.90
25046;DHT22;13044;49.304;12.840;2023-12-29T11:32:03;9.70;99.90
25046;DHT22;13044;49.304;12.840;2023-12-29T11:34:37;9.80;99.90
25046;DHT22;13044;49.304;12.840;2023-12-29T11:41:00;9.90;99.90
25046;DHT22;13044;49.304;12.840;2023-12-29T11:43:32;9.90;99.90
25046;DHT22;13044;49.304;12.840;2023-12-29T11:46:00;9.90;99.90
25046;DHT22;13044;49.304;12.840;2023-12-29T11:48:55;9.90;99.90
25046;DHT22;13044;49.304;12.840;2023-12-29T11:51:32;10.00;99.90
25046;DHT22;13044;49.304;12.840;2023-12-29T11:54:01;10.00;99.90
25046;DHT22;13044;49.304;12.840;2023-12-29T11:56:34;10.00;99.90
25046;DHT22;13044;49.304;12.840;2023-12-29T12:01:50;10.10;99.90
25046;DHT22;13044;49.304;12.840;2023-12-29T12:04:37;10.00;99.90
25046;DHT22;13044;49.304;12.840;2023-12-29T12:12:49;10.10;99.90
25046;DHT22;13044;49.304;12.840;2023-12-29T12:17:58;10.20;99.90
25046;DHT22;13044;49.304;12.840;2023-12-29T12:20:26;10.20;99.90
25046;DHT22;13044;49.304;12.840;2023-12-29T12:23:18;10.20;99.90
25046;DHT22;13044;49.304;12.840;2023-12-29T12:25:46;10.20;99.90
25046;DHT22;13044;49.304;12.840;2023-12-29T12:28:14;10.40;99.90
25046;DHT22;13044;49.304;12.840;2023-12-29T12:30:41;10.40;99.90
25046;DHT22;13044;49.304;12.840;2023-12-29T12:33:08;10.50;99.90
25046;DHT22;13044;49.304;12.840;2023-12-29T12:35:39;10.60;99.90
25046;DHT22;13044;49.304;12.840;2023-12-29T12:38:16;10.60;99.90
25046;DHT22;13044;49.304;12.840;2023-12-29T12:40:50;10.60;99.90
25046;DHT22;13044;49.304;12.840;2023-12-29T12:43:18;10.60;99.90
25046;DHT22;13044;49.304;12.840;2023-12-29T12:45:59;10.60;99.90
25046;DHT22;13044;49.304;12.840;2023-12-29T12:48:40;10.60;99.90
25046;DHT22;13044;49.304;12.840;2023-12-29T12:51:10;10.60;99.90
25046;DHT22;13044;49.304;12.840;2023-12-29T12:53:41;10.60;99.90
25046;DHT22;13044;49.304;12.840;2023-12-29T12:56:09;10.70;99.90
25046;DHT22;13044;49.304;12.840;2023-12-29T12:58:36;10.70;99.90
25046;DHT22;13044;49.304;12.840;2023-12-29T13:01:04;10.80;99.90
25046;DHT22;13044;49.304;12.840;2023-12-29T13:03:31;10.80;99.90
25046;DHT22;13044;49.304;12.840;2023-12-29T13:05:59;10.90;99.90
25046;DHT22;13044;49.304;12.840;2023-12-29T13:08:27;10.90;99.90
25046;DHT22;13044;49.304;12.840;2023-12-29T13:11:04;11.00;99.90
25046;DHT22;13044;49.304;12.840;2023-12-29T13:13:42;11.00;99.90
25046;DHT22;13044;49.304;12.840;2023-12-29T13:16:10;11.10;99.90
25046;DHT22;13044;49.304;12.840;2023-12-29T13:18:37;11.10;99.90
25046;DHT22;13044;49.304;12.840;2023-12-29T13:21:06;11.00;99.90
25046;DHT22;13044;49.304;12.840;2023-12-29T13:23:34;11.10;99.90
25046;DHT22;13044;49.304;12.840;2023-12-29T13:26:09;11.10;99.90
25046;DHT22;13044;49.304;12.840;2023-12-29T13:28:38;11.10;99.90
25046;DHT22;13044;49.304;12.840;2023-12-29T13:31:09;11.00;99.90
25046;DHT22;13044;49.304;12.840;2023-12-29T13:33:51;11.00;99.90
25046;DHT22;13044;49.304;12.840;2023-12-29T13:39:37;10.80;99.90
25046;DHT22;13044;49.304;12.840;2023-12-29T13:42:07;10.70;99.90
25046;DHT22;13044;49.304;12.840;2023-12-29T13:44:36;10.60;99.90
25046;DHT22;13044;49.304;12.840;2023-12-29T13:47:06;10.60;99.90
25046;DHT22;13044;49.304;12.840;2023-12-29T13:49:33;10.60;99.90
25046;DHT22;13044;49.304;12.840;2023-12-29T13:52:04;10.50;99.90
25046;DHT22;13044;49.304;12.840;2023-12-29T13:54:41;10.50;99.90
25046;DHT22;13044;49.304;12.840;2023-12-29T13:57:09;10.50;99.90
25046;DHT22;13044;49.304;12.840;2023-12-29T13:59:37;10.50;99.90
25046;DHT22;13044;49.304;12.840;2023-12-29T14:02:26;10.50;99.90
25046;DHT22;13044;49.304;12.840;2023-12-29T14:05:26;10.40;99.90
25046;DHT22;13044;49.304;12.840;2023-12-29T14:08:45;10.40;99.90
25046;DHT22;13044;49.304;12.840;2023-12-29T14:11:10;10.40;99.90
25046;DHT22;13044;49.304;12.840;2023-12-29T14:13:42;10.40;99.90
25046;DHT22;13044;49.304;12.840;2023-12-29T14:16:10;10.30;99.90
25046;DHT22;13044;49.304;12.840;2023-12-29T14:18:52;10.40;99.90
25046;DHT22;13044;49.304;12.840;2023-12-29T14:21:31;10.40;99.90
25046;DHT22;13044;49.304;12.840;2023-12-29T14:26:32;10.40;99.90
25046;DHT22;13044;49.304;12.840;2023-12-29T14:31:34;10.40;99.90
25046;DHT22;13044;49.304;12.840;2023-12-29T14:34:05;10.30;99.90
25046;DHT22;13044;49.304;12.840;2023-12-29T14:36:34;10.30;99.90
25046;DHT22;13044;49.304;12.840;2023-12-29T14:39:02;10.30;99.90
25046;DHT22;13044;49.304;12.840;2023-12-29T14:41:30;10.40;99.90
25046;DHT22;13044;49.304;12.840;2023-12-29T14:43:57;10.30;99.90
25046;DHT22;13044;49.304;12.840;2023-12-29T14:46:24;10.30;99.90
25046;DHT22;13044;49.304;12.840;2023-12-29T14:48:52;10.30;99.90
25046;DHT22;13044;49.304;12.840;2023-12-29T14:51:20;10.30;99.90
25046;DHT22;13044;49.304;12.840;2023-12-29T14:53:49;10.30;99.90
25046;DHT22;13044;49.304;12.840;2023-12-29T14:56:17;10.20;99.90
25046;DHT22;13044;49.304;12.840;2023-12-29T14:58:44;10.30;99.90
25046;DHT22;13044;49.304;12.840;2023-12-29T15:01:11;10.30;99.90
25046;DHT22;13044;49.304;12.840;2023-12-29T15:03:38;10.20;99.90
25046;DHT22;13044;49.304;12.840;2023-12-29T15:06:05;10.20;99.90
25046;DHT22;13044;49.304;12.840;2023-12-29T15:08:32;10.20;99.90
25046;DHT22;13044;49.304;12.840;2023-12-29T15:11:05;10.20;99.90
25046;DHT22;13044;49.304;12.840;2023-12-29T15:13:32;10.20;99.90
25046;DHT22;13044;49.304;12.840;2023-12-29T15:16:01;10.20;99.90
25046;DHT22;13044;49.304;12.840;2023-12-29T15:18:29;10.20;99.90
25046;DHT22;13044;49.304;12.840;2023-12-29T15:20:58;10.20;99.90
25046;DHT22;13044;49.304;12.840;2023-12-29T15:23:25;10.20;99.90
25046;DHT22;13044;49.304;12.840;2023-12-29T15:25:54;10.20;99.90
25046;DHT22;13044;49.304;12.840;2023-12-29T15:28:22;10.20;99.90
25046;DHT22;13044;49.304;12.840;2023-12-29T15:30:49;10.10;99.90
25046;DHT22;13044;49.304;12.840;2023-12-29T15:33:17;10.20;99.90
25046;DHT22;13044;49.304;12.840;2023-12-29T15:35:45;10.10;99.90
25046;DHT22;13044;49.304;12.840;2023-12-29T15:38:13;10.10;99.90
25046;DHT22;13044;49.304;12.840;2023-12-29T15:40:40;10.10;99.90
25046;DHT22;13044;49.304;12.840;2023-12-29T15:43:07;10.10;99.90
25046;DHT22;13044;49.304;12.840;2023-12-29T15:45:34;10.10;99.90
25046;DHT22;13044;49.304;12.840;2023-12-29T15:48:02;10.10;99.90
25046;DHT22;13044;49.304;12.840;2023-12-29T15:50:30;10.00;99.90
25046;DHT22;13044;49.304;12.840;2023-12-29T15:52:57;10.00;99.90
25046;DHT22;13044;49.304;12.840;2023-12-29T15:55:24;9.90;99.90
25046;DHT22;13044;49.304;12.840;2023-12-29T15:57:51;9.90;99.90
25046;DHT22;13044;49.304;12.840;2023-12-29T16:00:18;9.80;99.90
25046;DHT22;13044;49.304;12.840;2023-12-29T16:02:45;9.80;99.90